Time;durP1;ratioP1;P1;durP2;ratioP2;P2;SDS_P1;SDS_P2;PMS_P1;PMS_P2;Temp;Humidity;BMP_temperature;BMP_pressure;BME280_temperature;BME280_humidity;BME280_pressure;Samples;Min_cycle;Max_cycle;Signal;HPM_P1;HPM_P2
2023/05/27 00:00:32;;;;;;;1.58;0.98;;;;;;;29.98;31.92;101309.44;7392939;19;20018;-79
2023/05/27 00:03:01;;;;;;;1.95;0.73;;;;;;;30.00;32.16;101303.88;7391803;19;20342;-78
2023/05/27 00:05:28;;;;;;;2.70;1.27;;;;;;;29.97;31.71;101311.53;7397437;19;20014;-79
2023/05/27 00:07:55;;;;;;;1.13;0.57;;;;;;;29.74;32.05;101304.28;7393681;19;20471;-78
2023/05/27 00:10:21;;;;;;;4.10;0.63;;;;;;;29.68;31.86;101307.34;7391406;19;20070;-78
2023/05/27 00:12:47;;;;;;;3.50;1.65;;;;;;;29.64;32.32;101304.09;7391918;19;20027;-78
2023/05/27 00:15:13;;;;;;;1.85;0.70;;;;;;;29.41;32.59;101303.31;7393794;19;20086;-79
2023/05/27 00:17:40;;;;;;;1.95;0.70;;;;;;;29.18;32.63;101308.28;7397698;19;20480;-78
2023/05/27 00:20:07;;;;;;;1.02;0.77;;;;;;;28.97;32.42;101304.75;7391209;19;20011;-79
2023/05/27 00:22:37;;;;;;;3.40;1.00;;;;;;;28.82;32.81;101310.47;7393605;19;20019;-78
2023/05/27 00:25:03;;;;;;;0.50;0.50;;;;;;;29.07;32.58;101308.59;7392574;19;20014;-79
2023/05/27 00:27:29;;;;;;;1.13;0.63;;;;;;;29.03;32.33;101308.22;7394254;19;20022;-78
2023/05/27 00:29:55;;;;;;;2.25;1.40;;;;;;;28.80;32.42;101307.41;7391130;19;20035;-77
2023/05/27 00:32:22;;;;;;;0.68;0.68;;;;;;;28.87;32.61;101310.28;7391830;19;20019;-77
2023/05/27 00:34:48;;;;;;;0.85;0.60;;;;;;;29.16;32.25;101305.97;7391587;19;20469;-78
2023/05/27 00:37:14;;;;;;;1.95;0.57;;;;;;;29.11;32.29;101303.25;7391147;19;20019;-77
2023/05/27 00:39:40;;;;;;;0.68;0.68;;;;;;;29.29;32.00;101296.41;7389932;19;20017;-77
2023/05/27 00:42:07;;;;;;;1.15;0.70;;;;;;;29.32;31.90;101301.03;7395651;19;20019;-77
2023/05/27 00:44:33;;;;;;;0.70;0.70;;;;;;;29.33;32.04;101296.03;7391376;19;20038;-77
2023/05/27 00:47:00;;;;;;;0.80;0.50;;;;;;;29.28;31.72;101294.91;7391755;19;20027;-77
2023/05/27 00:49:26;;;;;;;0.50;0.40;;;;;;;29.30;31.93;101294.31;7394856;19;20014;-77
2023/05/27 00:51:53;;;;;;;0.90;0.65;;;;;;;28.86;32.32;101294.41;7393347;19;20018;-77
2023/05/27 00:54:19;;;;;;;0.38;0.38;;;;;;;28.66;32.01;101285.94;7389603;19;20434;-78
2023/05/27 00:56:46;;;;;;;0.75;0.40;;;;;;;28.59;32.58;101278.09;7389028;19;20015;-77
2023/05/27 00:59:12;;;;;;;4.35;1.00;;;;;;;28.65;31.99;101275.81;7389796;19;20488;-77
2023/05/27 01:01:40;;;;;;;1.55;0.73;;;;;;;28.67;32.34;101278.88;7389290;19;20033;-78
2023/05/27 01:04:06;;;;;;;2.38;0.52;;;;;;;28.47;32.52;101281.25;7390421;19;20417;-79
2023/05/27 01:06:47;;;;;;;0.40;0.40;;;;;;;28.33;32.47;101276.97;7391735;19;20018;-78
2023/05/27 01:09:41;;;;;;;0.52;0.52;;;;;;;28.30;32.70;101278.13;7390969;19;20032;-78
2023/05/27 01:12:14;;;;;;;0.50;0.47;;;;;;;28.33;32.48;101270.47;7392250;19;20557;-78
2023/05/27 01:14:43;;;;;;;0.10;0.10;;;;;;;28.43;32.50;101263.66;7393008;19;20060;-78
2023/05/27 01:17:11;;;;;;;1.23;0.90;;;;;;;28.38;32.08;101273.19;7388967;19;20046;-78
2023/05/27 01:19:47;;;;;;;0.30;0.30;;;;;;;28.36;32.33;101261.53;7393896;19;20022;-78
2023/05/27 01:22:15;;;;;;;0.40;0.40;;;;;;;28.20;32.47;101257.06;7393033;19;20038;-78
2023/05/27 01:24:41;;;;;;;1.50;0.70;;;;;;;28.24;32.22;101260.31;7392010;19;20103;-78
2023/05/27 01:27:11;;;;;;;1.08;0.50;;;;;;;28.22;32.45;101268.72;7390712;19;20468;-78
2023/05/27 01:29:41;;;;;;;2.40;0.75;;;;;;;28.07;32.33;101260.03;7390767;19;20583;-78
2023/05/27 01:32:16;;;;;;;0.75;0.63;;;;;;;28.10;32.45;101263.88;7392596;19;20018;-78
2023/05/27 01:35:02;;;;;;;0.63;0.60;;;;;;;28.01;32.51;101265.16;7390751;19;20019;-78
2023/05/27 01:37:33;;;;;;;1.45;0.82;;;;;;;27.94;32.16;101260.13;7390061;19;20022;-78
2023/05/27 01:40:00;;;;;;;2.42;1.00;;;;;;;27.84;31.95;101253.38;7388782;19;20077;-78
2023/05/27 01:42:29;;;;;;;1.85;1.15;;;;;;;27.64;32.39;101251.34;7393489;19;20034;-78
2023/05/27 01:44:56;;;;;;;0.98;0.98;;;;;;;27.40;32.67;101249.63;7391951;19;20349;-78
2023/05/27 01:47:22;;;;;;;1.55;1.08;;;;;;;27.38;32.63;101248.66;7390221;19;20017;-78
2023/05/27 01:49:48;;;;;;;1.35;0.88;;;;;;;27.53;32.79;101251.63;7389882;19;20014;-78
2023/05/27 01:52:15;;;;;;;0.80;0.80;;;;;;;27.54;32.59;101248.22;7391469;19;20721;-78
2023/05/27 01:54:41;;;;;;;4.97;0.85;;;;;;;27.47;32.59;101242.44;7388260;19;20070;-78
2023/05/27 01:57:08;;;;;;;0.40;0.35;;;;;;;27.50;32.14;101241.31;7388102;19;20035;-78
2023/05/27 01:59:34;;;;;;;0.63;0.63;;;;;;;27.60;31.87;101239.47;7388325;19;20026;-78
2023/05/27 02:02:00;;;;;;;0.52;0.52;;;;;;;27.53;31.97;101234.47;7390498;19;20014;-78
2023/05/27 02:04:26;;;;;;;0.70;0.70;;;;;;;27.42;32.24;101229.81;7390600;19;20010;-78
2023/05/27 02:06:55;;;;;;;0.32;0.32;;;;;;;27.25;32.62;101225.81;7389269;19;20023;-78
2023/05/27 02:09:21;;;;;;;0.52;0.52;;;;;;;27.26;32.58;101219.56;7388967;19;20015;-78
2023/05/27 02:11:47;;;;;;;2.65;0.68;;;;;;;27.21;32.35;101226.19;7392866;19;20022;-77
2023/05/27 02:14:13;;;;;;;1.45;0.63;;;;;;;27.21;32.01;101226.19;7397252;19;20025;-78
2023/05/27 02:16:40;;;;;;;0.30;0.30;;;;;;;27.08;32.52;101222.63;7394016;19;20536;-77
2023/05/27 02:19:06;;;;;;;0.30;0.30;;;;;;;27.02;32.25;101222.78;7397390;19;20011;-78
2023/05/27 02:21:32;;;;;;;0.38;0.38;;;;;;;26.93;32.53;101228.97;7396125;19;20027;-77
2023/05/27 02:23:58;;;;;;;0.25;0.25;;;;;;;26.95;32.32;101221.38;7397211;19;20018;-78
2023/05/27 02:26:25;;;;;;;0.50;0.50;;;;;;;26.97;32.46;101227.31;7396004;19;20026;-78
2023/05/27 02:28:51;;;;;;;1.70;1.05;;;;;;;26.83;32.59;101225.81;7396291;19;20014;-78
2023/05/27 02:31:17;;;;;;;0.80;0.80;;;;;;;26.74;32.72;101223.47;7398146;19;20023;-78
2023/05/27 02:33:43;;;;;;;0.25;0.20;;;;;;;26.63;32.22;101223.69;7393033;19;20043;-78
2023/05/27 02:36:10;;;;;;;1.00;0.70;;;;;;;26.56;32.60;101209.31;7396925;19;20034;-78
2023/05/27 02:38:37;;;;;;;0.32;0.32;;;;;;;26.41;32.59;101218.50;7396191;19;20056;-78
2023/05/27 02:41:03;;;;;;;0.82;0.45;;;;;;;26.52;32.67;101208.88;7395843;19;20018;-77
2023/05/27 02:43:29;;;;;;;0.57;0.57;;;;;;;26.48;32.77;101217.03;7396171;19;20010;-77
2023/05/27 02:45:56;;;;;;;2.05;0.50;;;;;;;26.69;32.25;101215.75;7396219;19;20461;-78
2023/05/27 02:48:22;;;;;;;0.47;0.40;;;;;;;26.68;32.14;101199.91;7397689;19;20015;-77
2023/05/27 02:50:48;;;;;;;0.47;0.47;;;;;;;26.75;32.24;101198.47;7397594;19;20341;-78
2023/05/27 02:53:14;;;;;;;0.28;0.28;;;;;;;26.81;32.10;101197.03;7394144;19;20047;-78
2023/05/27 02:55:41;;;;;;;1.17;0.50;;;;;;;26.88;32.16;101193.47;7395572;19;20045;-77
2023/05/27 02:58:07;;;;;;;1.40;0.57;;;;;;;26.90;31.96;101190.81;7395651;19;20022;-77
2023/05/27 03:00:34;;;;;;;1.88;0.88;;;;;;;26.80;32.02;101186.94;7395516;19;20010;-78
2023/05/27 03:03:03;;;;;;;0.35;0.30;;;;;;;26.71;31.85;101187.38;7394657;19;20011;-78
2023/05/27 03:05:29;;;;;;;0.30;0.30;;;;;;;26.72;32.28;101197.50;7396554;19;20022;-78
2023/05/27 03:07:55;;;;;;;0.63;0.63;;;;;;;26.75;32.08;101190.69;7396070;19;20015;-77
2023/05/27 03:10:23;;;;;;;0.77;0.77;;;;;;;26.60;31.87;101184.78;7394518;19;20021;-78
2023/05/27 03:12:49;;;;;;;0.40;0.40;;;;;;;26.52;32.43;101183.19;7394178;19;20040;-78
2023/05/27 03:15:19;;;;;;;0.30;0.30;;;;;;;26.76;32.13;101175.06;7394520;19;20018;-77
2023/05/27 03:17:46;;;;;;;0.47;0.47;;;;;;;26.48;32.23;101189.25;7395916;19;20364;-77
2023/05/27 03:20:12;;;;;;;0.63;0.63;;;;;;;26.36;31.99;101187.94;7393912;19;20083;-78
2023/05/27 03:22:39;;;;;;;4.95;1.25;;;;;;;26.35;32.16;101189.28;7392867;19;20010;-77
2023/05/27 03:25:06;;;;;;;1.80;0.82;;;;;;;26.30;32.02;101185.22;7393533;19;20365;-77
2023/05/27 03:27:32;;;;;;;1.45;0.98;;;;;;;26.33;32.35;101194.00;7393642;19;20025;-78
2023/05/27 03:29:59;;;;;;;1.17;1.08;;;;;;;26.31;31.90;101183.16;7393350;19;20018;-77
2023/05/27 03:32:25;;;;;;;3.35;1.48;;;;;;;26.45;31.84;101181.78;7394915;19;20480;-78
2023/05/27 03:34:51;;;;;;;3.70;0.70;;;;;;;26.81;31.39;101182.72;7394948;19;20025;-78
2023/05/27 03:37:17;;;;;;;0.40;0.40;;;;;;;26.89;31.14;101180.72;7391866;19;20054;-78
2023/05/27 03:39:57;;;;;;;0.30;0.30;;;;;;;26.54;31.45;101181.31;7390365;19;20082;-77
2023/05/27 03:42:24;;;;;;;2.65;0.82;;;;;;;26.19;32.17;101179.75;7389698;19;20014;-77
2023/05/27 03:44:50;;;;;;;1.45;0.70;;;;;;;26.15;31.95;101178.56;7392870;19;20015;-77
2023/05/27 03:47:21;;;;;;;0.30;0.30;;;;;;;26.02;31.94;101175.72;7394397;19;20018;-77
2023/05/27 03:49:48;;;;;;;1.13;0.93;;;;;;;25.98;31.79;101175.28;7399119;19;20014;-77
2023/05/27 03:52:14;;;;;;;1.38;1.10;;;;;;;25.86;32.06;101166.19;7392155;19;20035;-78
2023/05/27 03:54:41;;;;;;;0.73;0.65;;;;;;;25.90;32.17;101168.72;7392402;19;20029;-78
2023/05/27 03:57:08;;;;;;;0.40;0.40;;;;;;;25.93;31.88;101170.44;7391663;19;20022;-78
2023/05/27 03:59:34;;;;;;;0.82;0.45;;;;;;;25.85;32.00;101158.94;7393628;19;20011;-77
2023/05/27 04:02:01;;;;;;;1.10;0.82;;;;;;;25.83;31.89;101169.38;7391738;19;20030;-78
2023/05/27 04:04:29;;;;;;;1.45;0.88;;;;;;;25.67;32.22;101159.06;7393339;19;20033;-77
2023/05/27 04:06:56;;;;;;;0.73;0.73;;;;;;;25.76;31.90;101170.81;7393267;19;20394;-78
2023/05/27 04:09:22;;;;;;;0.85;0.80;;;;;;;25.78;31.82;101162.47;7394434;19;20099;-77
2023/05/27 04:11:48;;;;;;;0.30;0.30;;;;;;;25.62;32.39;101177.09;7391045;19;20014;-77
2023/05/27 04:14:14;;;;;;;0.52;0.52;;;;;;;25.77;32.08;101174.44;7397001;19;20015;-77
2023/05/27 04:16:41;;;;;;;0.75;0.47;;;;;;;25.94;32.07;101169.91;7393043;19;20014;-78
2023/05/27 04:19:07;;;;;;;0.57;0.57;;;;;;;25.97;31.69;101165.16;7395907;19;20487;-78
2023/05/27 04:21:35;;;;;;;0.90;0.77;;;;;;;25.90;31.66;101168.72;7389596;19;20497;-78
2023/05/27 04:24:05;;;;;;;0.30;0.30;;;;;;;25.90;31.88;101174.41;7392425;19;20022;-78
2023/05/27 04:26:32;;;;;;;3.33;0.65;;;;;;;25.93;31.92;101168.38;7391107;19;20015;-77
2023/05/27 04:29:02;;;;;;;0.30;0.20;;;;;;;25.91;31.99;101171.00;7391549;19;20022;-78
2023/05/27 04:31:28;;;;;;;2.20;0.85;;;;;;;25.82;31.57;101164.97;7393114;19;20066;-78
2023/05/27 04:34:04;;;;;;;0.38;0.38;;;;;;;25.61;32.27;101172.69;7390611;19;20078;-77
2023/05/27 04:36:34;;;;;;;0.38;0.38;;;;;;;25.71;32.08;101173.78;7391907;19;20010;-78
2023/05/27 04:39:08;;;;;;;0.70;0.70;;;;;;;25.67;32.22;101179.03;7391459;19;20353;-77
2023/05/27 04:41:36;;;;;;;0.52;0.52;;;;;;;25.77;32.11;101171.59;7389705;19;20228;-78
2023/05/27 04:44:14;;;;;;;0.20;0.20;;;;;;;25.90;31.92;101180.13;7394662;19;20013;-78
2023/05/27 04:46:43;;;;;;;0.40;0.40;;;;;;;25.93;31.97;101179.78;7392392;19;20015;-78
2023/05/27 04:49:10;;;;;;;1.60;1.50;;;;;;;25.97;32.06;101185.16;7395818;19;20379;-78
2023/05/27 04:51:37;;;;;;;1.65;0.68;;;;;;;26.15;31.56;101184.28;7390777;19;20010;-77
2023/05/27 04:54:03;;;;;;;0.20;0.20;;;;;;;26.00;31.82;101184.06;7391275;19;20078;-78
2023/05/27 04:56:29;;;;;;;9.15;0.90;;;;;;;26.09;31.88;101189.34;7393325;19;20729;-78
2023/05/27 04:58:58;;;;;;;0.20;0.10;;;;;;;26.12;31.83;101191.09;7392208;19;20038;-78
2023/05/27 05:01:39;;;;;;;0.52;0.40;;;;;;;26.26;32.11;101190.53;7390355;19;20101;-77
2023/05/27 05:04:14;;;;;;;3.00;0.95;;;;;;;26.96;31.11;101188.59;7390482;19;20520;-78
2023/05/27 05:07:00;;;;;;;2.55;1.17;;;;;;;27.03;31.34;101182.19;7391510;19;20358;-78
2023/05/27 05:09:28;;;;;;;3.33;0.45;;;;;;;27.07;31.46;101186.78;7395829;19;20380;-78
2023/05/27 05:11:55;;;;;;;1.02;0.68;;;;;;;27.23;31.01;101183.47;7389692;19;20015;-78
2023/05/27 05:14:22;;;;;;;0.98;0.63;;;;;;;26.98;31.54;101190.91;7392925;19;20082;-77
2023/05/27 05:16:48;;;;;;;0.50;0.50;;;;;;;26.95;31.65;101189.94;7391243;19;20015;-78
2023/05/27 05:19:14;;;;;;;0.50;0.47;;;;;;;26.81;32.13;101194.16;7391791;19;20502;-77
2023/05/27 05:21:41;;;;;;;1.52;0.98;;;;;;;26.70;32.33;101188.72;7387506;19;20019;-77
2023/05/27 05:24:09;;;;;;;1.23;0.35;;;;;;;27.15;31.81;101182.66;7389636;19;20010;-78
2023/05/27 05:26:36;;;;;;;1.33;0.82;;;;;;;27.17;32.15;101179.22;7388462;19;20414;-77
2023/05/27 05:29:03;;;;;;;0.30;0.30;;;;;;;27.34;31.64;101180.31;7390035;19;20018;-78
2023/05/27 05:31:30;;;;;;;0.47;0.47;;;;;;;27.55;31.88;101183.91;7388859;19;20014;-77
2023/05/27 05:33:56;;;;;;;0.90;0.90;;;;;;;27.62;32.07;101179.56;7388477;19;20348;-77
2023/05/27 05:36:22;;;;;;;0.55;0.55;;;;;;;27.76;31.86;101183.88;7388765;19;20538;-77
2023/05/27 05:39:02;;;;;;;1.15;0.63;;;;;;;27.81;31.78;101182.91;7390195;19;20021;-78
2023/05/27 05:41:30;;;;;;;0.70;0.70;;;;;;;27.86;31.80;101190.59;7388115;19;20018;-77
2023/05/27 05:43:56;;;;;;;0.75;0.65;;;;;;;27.98;32.16;101183.22;7390686;19;20015;-77
2023/05/27 05:46:22;;;;;;;1.25;0.93;;;;;;;27.99;31.97;101179.03;7394396;19;20010;-78
2023/05/27 05:48:52;;;;;;;1.65;0.57;;;;;;;28.02;32.00;101183.66;7406237;19;20016;-77
2023/05/27 05:51:24;;;;;;;0.95;0.55;;;;;;;28.05;32.26;101179.63;7402077;19;20022;-77
2023/05/27 05:53:55;;;;;;;0.43;0.43;;;;;;;28.12;32.53;101176.03;7401507;19;20018;-77
2023/05/27 05:56:22;;;;;;;2.67;0.88;;;;;;;28.20;32.10;101176.81;7405602;19;20023;-78
2023/05/27 05:58:48;;;;;;;1.42;0.60;;;;;;;28.23;32.44;101169.19;7404157;19;20491;-78
2023/05/27 06:01:15;;;;;;;0.88;0.88;;;;;;;28.35;32.50;101168.28;7403478;19;20018;-78
2023/05/27 06:03:42;;;;;;;1.88;1.38;;;;;;;28.54;32.14;101165.84;7403311;19;20464;-78
2023/05/27 06:06:14;;;;;;;0.85;0.85;;;;;;;28.62;32.26;101170.84;7402096;19;20445;-78
2023/05/27 06:09:02;;;;;;;6.78;1.65;;;;;;;28.74;32.48;101172.03;7404774;19;20034;-78
2023/05/27 06:11:28;;;;;;;7.47;1.38;;;;;;;28.88;32.25;101170.50;7400593;19;20014;-77
2023/05/27 06:13:55;;;;;;;3.80;1.10;;;;;;;29.06;32.44;101177.97;7404077;19;20019;-78
2023/05/27 06:16:21;;;;;;;0.95;0.57;;;;;;;29.18;32.62;101171.28;7403547;19;20090;-78
2023/05/27 06:18:47;;;;;;;0.40;0.17;;;;;;;29.06;32.59;101158.63;7405606;19;20015;-78
2023/05/27 06:21:14;;;;;;;1.92;1.15;;;;;;;29.09;33.06;101168.19;7404656;19;20025;-78
2023/05/27 06:24:09;;;;;;;2.15;0.75;;;;;;;29.34;33.14;101172.06;7404290;19;20014;-78
2023/05/27 06:26:39;;;;;;;0.55;0.55;;;;;;;29.53;32.88;101160.91;7403479;19;20018;-78
2023/05/27 06:29:05;;;;;;;2.22;2.03;;;;;;;29.63;32.76;101170.44;7404906;19;20051;-78
2023/05/27 06:31:33;;;;;;;0.98;0.57;;;;;;;29.56;32.99;101174.09;7401117;19;20082;-78
2023/05/27 06:33:59;;;;;;;0.43;0.43;;;;;;;29.39;33.57;101162.47;7404925;19;20030;-78
2023/05/27 06:36:26;;;;;;;1.88;0.63;;;;;;;29.50;33.32;101155.56;7402108;19;20494;-78
2023/05/27 06:38:53;;;;;;;0.90;0.63;;;;;;;29.87;32.94;101161.22;7402540;19;20081;-78
2023/05/27 06:41:19;;;;;;;0.55;0.40;;;;;;;29.96;32.93;101151.22;7400646;19;20042;-78
2023/05/27 06:44:01;;;;;;;2.92;1.17;;;;;;;30.03;33.14;101166.91;7402345;19;20024;-78
2023/05/27 06:46:47;;;;;;;2.05;1.35;;;;;;;29.98;33.29;101152.16;7402211;19;20035;-78
2023/05/27 06:49:25;;;;;;;0.77;0.57;;;;;;;30.06;33.22;101143.50;7406413;19;20406;-78
2023/05/27 06:51:51;;;;;;;1.52;0.77;;;;;;;30.23;33.36;101151.47;7400252;19;20368;-78
2023/05/27 06:54:17;;;;;;;2.35;0.90;;;;;;;30.29;33.48;101149.16;7399221;19;20483;-78
2023/05/27 06:56:44;;;;;;;2.65;1.00;;;;;;;30.37;33.17;101150.66;7400372;19;20437;-78
2023/05/27 06:59:36;;;;;;;1.80;0.68;;;;;;;30.50;33.34;101149.63;7393285;19;20018;-78
2023/05/27 07:02:03;;;;;;;5.25;0.70;;;;;;;30.40;33.29;101143.75;7393912;19;20019;-78
2023/05/27 07:04:29;;;;;;;0.57;0.57;;;;;;;30.31;33.77;101140.72;7394919;19;20624;-78
2023/05/27 07:06:58;;;;;;;2.80;0.60;;;;;;;30.84;33.21;101143.25;7393846;19;20473;-78
2023/05/27 07:09:24;;;;;;;0.60;0.60;;;;;;;31.21;32.72;101140.03;7395535;19;20044;-78
2023/05/27 07:11:51;;;;;;;2.78;0.80;;;;;;;31.72;32.52;101132.81;7393077;19;20034;-78
2023/05/27 07:14:45;;;;;;;3.17;1.08;;;;;;;31.78;32.48;101139.06;7396365;19;20010;-78
2023/05/27 07:17:12;;;;;;;8.25;1.58;;;;;;;31.83;32.90;101132.28;7391565;19;20014;-78
2023/05/27 07:19:38;;;;;;;3.40;0.45;;;;;;;31.93;32.78;101127.34;7396968;19;20017;-79
2023/05/27 07:22:08;;;;;;;6.55;1.15;;;;;;;32.19;32.14;101120.88;7391597;19;20041;-78
2023/05/27 07:24:35;;;;;;;2.15;0.93;;;;;;;32.24;32.43;101122.75;7394753;19;20021;-78
2023/05/27 07:27:01;;;;;;;2.42;0.65;;;;;;;32.32;32.34;101117.63;7394463;19;20015;-78
2023/05/27 07:29:29;;;;;;;0.90;0.65;;;;;;;32.51;32.04;101126.38;7394893;19;20018;-79
2023/05/27 07:32:16;;;;;;;27.05;1.55;;;;;;;32.23;32.43;101126.22;7390367;19;20018;-78
2023/05/27 07:34:42;;;;;;;3.67;0.88;;;;;;;32.58;31.99;101113.22;7392030;19;20473;-79
2023/05/27 07:37:09;;;;;;;0.90;0.47;;;;;;;32.72;31.59;101115.09;7391796;19;20014;-79
2023/05/27 07:39:35;;;;;;;2.15;0.43;;;;;;;32.59;31.70;101114.75;7391483;19;20750;-79
2023/05/27 07:42:01;;;;;;;1.05;0.50;;;;;;;33.03;31.50;101114.63;7391980;19;20015;-79
2023/05/27 07:44:30;;;;;;;3.70;1.27;;;;;;;32.74;31.40;101112.38;7393751;19;20026;-79
2023/05/27 07:46:57;;;;;;;4.57;1.08;;;;;;;32.63;31.10;101107.19;7394389;19;20018;-79
2023/05/27 07:49:25;;;;;;;4.68;0.73;;;;;;;32.76;31.25;101111.78;7397490;19;20038;-79
2023/05/27 07:52:09;;;;;;;0.20;0.20;;;;;;;32.96;30.31;101106.81;7391355;19;20014;-79
2023/05/27 07:54:36;;;;;;;0.25;0.25;;;;;;;32.92;30.76;101108.00;7390749;19;20422;-79
2023/05/27 07:57:02;;;;;;;1.10;0.93;;;;;;;32.88;30.52;101095.38;7390588;19;20011;-79
2023/05/27 07:59:29;;;;;;;1.08;0.75;;;;;;;32.87;30.84;101091.75;7390464;19;20338;-79
2023/05/27 08:01:56;;;;;;;2.97;1.83;;;;;;;32.60;29.76;101091.06;7390435;19;20370;-79
2023/05/27 08:04:22;;;;;;;0.82;0.70;;;;;;;32.56;30.40;101079.19;7391750;19;20042;-79
2023/05/27 08:07:07;;;;;;;2.28;0.40;;;;;;;33.04;30.13;101084.38;7393969;19;20358;-78
2023/05/27 08:09:48;;;;;;;0.25;0.17;;;;;;;33.28;30.15;101077.56;7391848;19;20033;-78
2023/05/27 08:12:24;;;;;;;5.93;1.05;;;;;;;33.10;30.56;101079.81;7389960;19;20018;-79
2023/05/27 08:15:11;;;;;;;0.85;0.70;;;;;;;33.21;30.26;101072.69;7392247;19;20038;-79
2023/05/27 08:17:55;;;;;;;0.90;0.47;;;;;;;33.27;30.40;101059.47;7391666;19;20011;-79
2023/05/27 08:20:41;;;;;;;22.38;0.75;;;;;;;33.32;30.48;101066.31;7391378;19;20010;-79
2023/05/27 08:23:26;;;;;;;1.10;0.52;;;;;;;33.32;30.85;101064.19;7394074;19;20357;-79
2023/05/27 08:26:11;;;;;;;4.13;1.63;;;;;;;33.67;30.18;101056.00;7395552;19;20081;-79
2023/05/27 08:28:52;;;;;;;3.70;0.40;;;;;;;34.22;30.42;101057.84;7392161;19;20006;-78
2023/05/27 08:31:28;;;;;;;0.30;0.30;;;;;;;33.88;31.14;101059.00;7393010;19;20015;-78
2023/05/27 08:33:57;;;;;;;0.40;0.40;;;;;;;34.10;31.07;101060.63;7391777;19;20346;-78
2023/05/27 08:36:23;;;;;;;8.40;0.43;;;;;;;34.24;30.28;101052.97;7395579;19;20015;-78
2023/05/27 08:38:51;;;;;;;5.57;0.73;;;;;;;34.38;29.87;101058.25;7392108;19;20481;-77
2023/05/27 08:41:21;;;;;;;0.85;0.15;;;;;;;34.91;29.33;101051.91;7390639;19;20378;-77
2023/05/27 08:43:48;;;;;;;1.75;0.93;;;;;;;35.28;28.48;101047.22;7392370;19;20018;-77
2023/05/27 08:46:16;;;;;;;9.38;0.90;;;;;;;35.47;28.68;101049.97;7394548;19;20481;-77
2023/05/27 08:48:43;;;;;;;0.85;0.52;;;;;;;35.58;28.47;101043.47;7393571;19;20114;-77
2023/05/27 08:51:10;;;;;;;2.83;0.45;;;;;;;35.70;28.43;101043.50;7390115;19;20022;-77
2023/05/27 08:53:38;;;;;;;1.88;0.30;;;;;;;35.31;28.04;101043.06;7390443;19;20025;-77
2023/05/27 08:56:06;;;;;;;4.32;0.50;;;;;;;35.44;28.63;101042.50;7393600;19;20014;-77
2023/05/27 08:58:34;;;;;;;3.50;0.57;;;;;;;35.90;27.45;101041.16;7391010;19;20014;-77
2023/05/27 09:01:01;;;;;;;0.90;0.30;;;;;;;35.90;27.25;101041.94;7389963;19;20104;-77
2023/05/27 09:03:28;;;;;;;3.22;0.47;;;;;;;36.42;26.54;101035.81;7391695;19;20014;-78
2023/05/27 09:05:55;;;;;;;0.73;0.68;;;;;;;36.67;26.81;101035.94;7394147;19;20031;-78
2023/05/27 09:08:22;;;;;;;15.90;0.68;;;;;;;36.90;26.48;101032.28;7391681;19;20026;-77
2023/05/27 09:10:48;;;;;;;8.20;0.73;;;;;;;36.80;25.98;101032.41;7392369;19;20018;-77
2023/05/27 09:13:26;;;;;;;0.65;0.40;;;;;;;37.21;26.21;101021.84;7391099;19;20321;-78
2023/05/27 09:15:59;;;;;;;0.55;0.30;;;;;;;37.17;26.12;101021.59;7393587;19;20015;-78
2023/05/27 09:18:27;;;;;;;5.32;0.65;;;;;;;37.32;26.34;101019.53;7394515;19;20344;-78
2023/05/27 09:20:55;;;;;;;2.38;0.52;;;;;;;37.58;26.49;101012.34;7387589;19;20098;-77
2023/05/27 09:23:21;;;;;;;3.05;0.70;;;;;;;37.56;26.14;101009.31;7391630;19;20379;-77
2023/05/27 09:25:48;;;;;;;8.13;0.98;;;;;;;37.67;25.74;101005.59;7394159;19;20078;-78
2023/05/27 09:28:21;;;;;;;1.55;0.68;;;;;;;37.84;25.96;100999.31;7389718;19;20016;-78
2023/05/27 09:31:04;;;;;;;2.53;0.40;;;;;;;38.02;25.91;100996.66;7391336;19;20078;-78
2023/05/27 09:33:32;;;;;;;3.13;0.43;;;;;;;38.14;26.96;100992.25;7388305;19;20031;-78
2023/05/27 09:36:01;;;;;;;0.63;0.28;;;;;;;38.27;26.22;100987.91;7395189;19;20010;-78
2023/05/27 09:38:31;;;;;;;1.65;0.52;;;;;;;37.83;25.96;100980.34;7390607;19;20026;-77
2023/05/27 09:40:58;;;;;;;0.68;0.40;;;;;;;38.03;26.43;100987.31;7387255;19;20015;-78
2023/05/27 09:43:28;;;;;;;2.20;0.40;;;;;;;38.28;25.47;100975.59;7391410;19;20018;-77
2023/05/27 09:46:00;;;;;;;2.20;0.98;;;;;;;38.21;24.24;100982.44;7393116;19;20648;-77
2023/05/27 09:48:28;;;;;;;8.85;0.82;;;;;;;37.80;24.13;100970.00;7391338;19;20021;-77
2023/05/27 09:50:56;;;;;;;1.38;0.57;;;;;;;38.05;25.66;100972.88;7389016;19;20011;-77
2023/05/27 09:53:24;;;;;;;3.25;0.55;;;;;;;38.34;24.53;100975.91;7387964;19;20052;-78
2023/05/27 09:55:53;;;;;;;1.25;0.75;;;;;;;38.77;24.62;100973.09;7395179;19;20477;-78
2023/05/27 09:58:21;;;;;;;12.27;0.73;;;;;;;38.52;25.04;100973.97;7393777;19;20380;-78
2023/05/27 10:00:49;;;;;;;0.47;0.13;;;;;;;38.62;24.13;100971.59;7389436;19;20094;-78
2023/05/27 10:03:23;;;;;;;4.55;0.68;;;;;;;38.72;24.83;100979.38;7389589;19;20025;-77
2023/05/27 10:05:51;;;;;;;3.03;0.65;;;;;;;38.69;23.71;100963.94;7392529;19;20528;-77
2023/05/27 10:08:18;;;;;;;2.30;0.40;;;;;;;38.66;24.26;100971.78;7389661;19;20011;-78
2023/05/27 10:10:45;;;;;;;1.48;0.47;;;;;;;38.75;24.25;100972.25;7390012;19;20242;-79
2023/05/27 10:13:15;;;;;;;0.93;0.43;;;;;;;38.51;23.25;100974.59;7389125;19;20346;-78
2023/05/27 10:15:47;;;;;;;0.43;0.20;;;;;;;38.92;24.22;100968.75;7392412;19;20019;-78
2023/05/27 10:18:23;;;;;;;1.00;0.70;;;;;;;39.00;23.50;100975.00;7390599;19;20029;-78
2023/05/27 10:20:50;;;;;;;1.48;0.30;;;;;;;38.95;23.25;100976.94;7388894;19;20022;-78
2023/05/27 10:23:23;;;;;;;5.72;0.75;;;;;;;39.19;23.73;100974.53;7389846;19;20032;-78
2023/05/27 10:25:55;;;;;;;0.45;0.28;;;;;;;39.26;23.55;100967.59;7391986;19;20383;-77
2023/05/27 10:28:25;;;;;;;1.38;0.30;;;;;;;39.03;23.53;100970.78;7391147;19;20022;-78
2023/05/27 10:30:52;;;;;;;2.17;0.15;;;;;;;39.14;23.31;100961.16;7388923;19;20019;-78
2023/05/27 10:33:33;;;;;;;2.47;0.60;;;;;;;39.13;23.05;100962.56;7390028;19;20504;-77
2023/05/27 10:36:11;;;;;;;0.73;0.20;;;;;;;38.96;23.38;100960.97;7397874;19;20022;-78
2023/05/27 10:38:39;;;;;;;2.20;0.38;;;;;;;39.30;23.59;100956.13;7397849;19;20014;-78
2023/05/27 10:41:06;;;;;;;3.33;0.30;;;;;;;39.31;22.83;100958.38;7400437;19;20022;-79
2023/05/27 10:43:33;;;;;;;1.42;0.47;;;;;;;39.39;22.93;100937.63;7396467;19;20014;-79
2023/05/27 10:46:11;;;;;;;8.27;1.42;;;;;;;39.44;22.49;100933.47;7399101;19;20021;-79
2023/05/27 10:48:39;;;;;;;2.40;0.52;;;;;;;39.67;23.50;100930.25;7398012;19;20463;-79
2023/05/27 10:51:09;;;;;;;2.97;0.73;;;;;;;39.94;23.53;100929.31;7393018;19;20014;-79
2023/05/27 10:53:36;;;;;;;1.48;0.47;;;;;;;39.70;22.07;100928.19;7394852;19;20014;-79
2023/05/27 10:56:03;;;;;;;4.60;0.82;;;;;;;39.62;22.37;100922.72;7396794;19;20073;-79
2023/05/27 10:58:33;;;;;;;4.00;0.28;;;;;;;39.74;22.31;100917.47;7394883;19;20439;-79
2023/05/27 11:01:08;;;;;;;1.83;0.50;;;;;;;39.91;22.11;100913.88;7396324;19;20429;-79
2023/05/27 11:03:34;;;;;;;4.80;0.32;;;;;;;39.97;21.95;100910.47;7395424;19;20018;-80
2023/05/27 11:06:02;;;;;;;1.80;0.10;;;;;;;39.96;22.55;100912.63;7396866;19;20019;-79
2023/05/27 11:08:29;;;;;;;4.88;0.20;;;;;;;40.43;22.18;100909.69;7395970;19;20015;-79
2023/05/27 11:11:05;;;;;;;3.47;0.20;;;;;;;40.28;21.40;100906.78;7395527;19;20018;-79
2023/05/27 11:13:34;;;;;;;1.38;0.22;;;;;;;40.34;21.91;100907.81;7396305;19;20014;-79
2023/05/27 11:16:05;;;;;;;2.37;0.50;;;;;;;40.42;21.13;100902.34;7396620;19;20600;-79
2023/05/27 11:18:36;;;;;;;2.95;0.93;;;;;;;40.64;21.63;100897.47;7398361;19;20014;-79
2023/05/27 11:21:05;;;;;;;6.40;0.30;;;;;;;41.24;21.52;100896.34;7394373;19;20393;-79
2023/05/27 11:23:43;;;;;;;6.68;0.80;;;;;;;41.45;21.64;100889.91;7396126;19;20022;-79
2023/05/27 11:26:14;;;;;;;0.38;0.20;;;;;;;41.73;20.75;100895.34;7398867;19;20033;-79
2023/05/27 11:28:46;;;;;;;1.58;0.40;;;;;;;39.44;21.99;100889.00;7394034;19;20085;-79
2023/05/27 11:31:14;;;;;;;2.28;0.70;;;;;;;35.71;24.75;100892.13;7395073;19;20019;-78
2023/05/27 11:33:42;;;;;;;1.75;0.30;;;;;;;35.82;25.29;100898.56;7394301;19;20028;-79